Kabetogama, Minnesota
Current Conditions -  °F | °C
As of 11:55 PM on Saturday 20 Dec 2014 (Local Time) from KINL Reporting Station
Overcast Overcast  
Wind Chill: 22°   Ceiling: 600
Heat Index: 28°   Visibility: 8mi
Dew Point: 26°   Wind: 6mph
Humidity: 92%   Direction: 180°S
Pressure: 29.94"   Gusts: NA
Location:  48.5197°N, 92.902°W
Report Text: KINL 210555Z AUTO 18005KT 8SM OVC006 M02/M03 A2994 RMK AO2 SLP157 I6002 T10221033 11011 21022 410111044 58009
Loading
Personal Weather Stations






























Interactive Weather Map New forecast layout! Learn more

10-Day Weather Forecast

Advertisements
Track Severe Weather on mobile